createdAt,value
2017-11-17T00:01:54.595Z,90.40
2017-11-17T00:04:22.965Z,90.40
2017-11-17T00:06:51.276Z,90.40
2017-11-17T00:09:18.819Z,90.40
2017-11-17T00:11:49.186Z,90.40
2017-11-17T00:14:16.734Z,90.40
2017-11-17T00:16:44.287Z,90.40
2017-11-17T00:19:11.878Z,90.40
2017-11-17T00:21:39.423Z,90.40
2017-11-17T00:24:10.774Z,90.50
2017-11-17T00:26:38.317Z,90.50
2017-11-17T00:29:05.855Z,90.50
2017-11-17T00:31:33.460Z,90.50
2017-11-17T00:34:01.004Z,90.80
2017-11-17T00:36:28.557Z,90.60
2017-11-17T00:38:57.715Z,90.60
2017-11-17T00:41:26.031Z,90.60
2017-11-17T00:43:53.570Z,90.60
2017-11-17T00:46:21.187Z,90.60
2017-11-17T00:48:48.744Z,90.70
2017-11-17T00:51:16.299Z,90.70
2017-11-17T00:53:43.888Z,90.70
2017-11-17T00:56:12.211Z,90.80
2017-11-17T00:58:39.823Z,90.70
2017-11-17T01:01:08.136Z,90.80
2017-11-17T01:03:35.678Z,90.80
2017-11-17T01:06:04.045Z,90.80
2017-11-17T01:08:32.360Z,90.80
2017-11-17T01:10:59.904Z,90.80
2017-11-17T01:13:27.493Z,90.90
2017-11-17T01:15:55.075Z,90.90
2017-11-17T01:18:22.629Z,90.90
2017-11-17T01:20:50.216Z,90.90
2017-11-17T01:23:18.539Z,91.00
2017-11-17T01:25:46.167Z,91.00
2017-11-17T01:28:14.477Z,91.00
2017-11-17T01:30:42.040Z,91.00
2017-11-17T01:33:09.628Z,91.00
2017-11-17T01:35:37.214Z,91.00
2017-11-17T01:38:05.538Z,91.10
2017-11-17T01:40:38.387Z,91.10
2017-11-17T01:43:06.698Z,91.10
2017-11-17T01:45:34.242Z,91.10
2017-11-17T01:48:01.985Z,91.10
2017-11-17T01:50:30.305Z,91.20
2017-11-17T01:52:57.888Z,91.10
2017-11-17T01:55:25.444Z,91.20
2017-11-17T01:57:53.072Z,91.20
2017-11-17T02:00:20.634Z,91.20
2017-11-17T02:02:48.183Z,91.20
2017-11-17T02:05:15.827Z,91.20
2017-11-17T02:07:44.134Z,91.30
2017-11-17T02:10:11.716Z,91.30
2017-11-17T02:12:39.261Z,91.40
2017-11-17T02:15:06.855Z,91.40
2017-11-17T02:17:34.397Z,91.40
2017-11-17T02:20:01.979Z,91.40
2017-11-17T02:22:29.521Z,91.40
2017-11-17T02:24:57.209Z,91.50
2017-11-17T02:27:25.522Z,91.50
2017-11-17T02:29:53.132Z,91.50
2017-11-17T02:32:20.679Z,91.50
2017-11-17T02:34:48.219Z,91.60
2017-11-17T02:37:15.803Z,91.60
2017-11-17T02:39:43.375Z,91.60
2017-11-17T02:42:11.904Z,91.70
2017-11-17T02:44:39.455Z,91.60
2017-11-17T02:47:07.040Z,91.70
2017-11-17T02:49:34.586Z,91.80
2017-11-17T02:52:07.042Z,91.80
2017-11-17T02:54:34.616Z,91.80
2017-11-17T02:57:02.160Z,92.10
2017-11-17T02:59:30.075Z,91.80
2017-11-17T03:01:57.625Z,92.20
2017-11-17T03:04:25.213Z,91.80
2017-11-17T03:06:55.316Z,91.90
2017-11-17T03:09:22.921Z,91.90
2017-11-17T03:11:51.233Z,92.00
2017-11-17T03:14:18.779Z,92.00
2017-11-17T03:16:46.808Z,92.10
2017-11-17T03:19:14.362Z,92.10
2017-11-17T03:21:41.907Z,92.10
2017-11-17T03:24:09.535Z,92.10
2017-11-17T03:26:37.080Z,92.50
2017-11-17T03:29:04.703Z,92.20
2017-11-17T03:31:32.249Z,92.20
2017-11-17T03:33:59.844Z,92.20
2017-11-17T03:36:28.165Z,92.30
2017-11-17T03:39:00.907Z,92.30
2017-11-17T03:41:29.215Z,92.30
2017-11-17T03:43:56.759Z,92.30
2017-11-17T03:46:24.351Z,92.30
2017-11-17T03:48:51.940Z,92.30
2017-11-17T03:51:19.483Z,92.30
2017-11-17T03:53:47.067Z,92.30
2017-11-17T03:56:14.612Z,92.30
2017-11-17T03:58:42.199Z,92.30
2017-11-17T04:01:10.505Z,92.40
2017-11-17T04:03:38.095Z,92.40
2017-11-17T04:06:05.644Z,92.50
2017-11-17T04:08:33.636Z,92.50
2017-11-17T04:11:01.180Z,92.50
2017-11-17T04:13:28.722Z,92.50
2017-11-17T04:15:56.311Z,92.50
2017-11-17T04:18:24.175Z,92.50
2017-11-17T04:20:51.715Z,92.50
2017-11-17T04:23:19.702Z,92.50
2017-11-17T04:25:47.242Z,92.90
2017-11-17T04:28:14.782Z,92.60
2017-11-17T04:30:42.376Z,92.60
2017-11-17T04:33:10.115Z,92.60
2017-11-17T04:35:37.789Z,92.90
2017-11-17T04:38:05.774Z,92.60
2017-11-17T04:40:33.306Z,92.70
2017-11-17T04:43:00.850Z,92.70
2017-11-17T04:45:29.194Z,92.80
2017-11-17T04:47:56.799Z,92.80
2017-11-17T04:50:24.560Z,92.80
2017-11-17T04:52:52.103Z,92.80
2017-11-17T04:55:20.472Z,92.80
2017-11-17T04:57:48.019Z,92.80
2017-11-17T05:00:15.570Z,92.90
2017-11-17T05:02:43.164Z,92.90
2017-11-17T05:05:11.472Z,92.90
2017-11-17T05:07:39.834Z,92.90
2017-11-17T05:10:07.378Z,92.90
2017-11-17T05:12:35.682Z,92.90
2017-11-17T05:15:03.268Z,92.90
2017-11-17T05:17:30.894Z,92.90
2017-11-17T05:19:58.435Z,92.90
2017-11-17T05:22:26.791Z,92.90
2017-11-17T05:24:54.342Z,92.90
2017-11-17T05:27:21.952Z,93.00
2017-11-17T05:29:49.499Z,93.00
2017-11-17T05:32:17.819Z,92.90
2017-11-17T05:34:45.502Z,92.90
2017-11-17T05:37:13.185Z,92.90
2017-11-17T05:39:40.767Z,92.90
2017-11-17T05:42:09.120Z,92.90
2017-11-17T05:44:36.740Z,92.90
2017-11-17T05:47:04.326Z,92.90
2017-11-17T05:49:31.892Z,92.90
2017-11-17T05:51:59.731Z,93.00
2017-11-17T05:54:27.281Z,93.00
2017-11-17T05:56:54.823Z,93.00
2017-11-17T05:59:22.423Z,92.90
2017-11-17T06:01:50.855Z,92.90
2017-11-17T06:04:19.310Z,92.90
2017-11-17T06:06:46.858Z,92.90
2017-11-17T06:09:14.402Z,92.80
2017-11-17T06:11:41.982Z,92.90
2017-11-17T06:14:09.526Z,92.90
2017-11-17T06:16:37.186Z,92.90
2017-11-17T06:19:04.727Z,92.90
2017-11-17T06:21:32.450Z,93.00
2017-11-17T06:24:00.760Z,93.10
2017-11-17T06:26:28.308Z,93.10
2017-11-17T06:28:57.099Z,93.10
2017-11-17T06:31:24.715Z,93.10
2017-11-17T06:33:52.258Z,93.10
2017-11-17T06:36:19.880Z,93.10
2017-11-17T06:38:48.716Z,93.10
2017-11-17T06:41:16.288Z,93.10
2017-11-17T06:43:43.836Z,93.20
2017-11-17T06:46:11.463Z,93.20
2017-11-17T06:48:39.008Z,93.20
2017-11-17T06:51:06.558Z,93.20
2017-11-17T06:53:35.062Z,93.20
2017-11-17T06:56:03.994Z,93.20
2017-11-17T06:58:34.379Z,93.20
2017-11-17T07:01:01.922Z,93.20
2017-11-17T07:03:30.264Z,93.20
2017-11-17T07:05:57.815Z,93.20
2017-11-17T07:08:25.424Z,93.10
2017-11-17T07:10:53.016Z,93.10
2017-11-17T07:13:20.635Z,93.00
2017-11-17T07:15:48.984Z,93.10
2017-11-17T07:18:20.361Z,93.00
2017-11-17T07:20:48.667Z,93.00
2017-11-17T07:23:16.279Z,93.00
2017-11-17T07:25:43.830Z,93.00
2017-11-17T07:28:11.384Z,92.90
2017-11-17T07:30:39.026Z,92.90
2017-11-17T07:33:06.613Z,92.90
2017-11-17T07:35:34.179Z,93.10
2017-11-17T07:38:07.408Z,93.00
2017-11-17T07:40:34.975Z,93.00
2017-11-17T07:43:04.787Z,93.00
2017-11-17T07:59:49.168Z,92.90
2017-11-17T08:02:17.138Z,92.90
2017-11-17T08:04:44.706Z,92.90
2017-11-17T08:07:12.290Z,93.00
2017-11-17T08:09:40.013Z,93.10
2017-11-17T08:12:07.553Z,93.10
2017-11-17T08:14:35.101Z,93.10
2017-11-17T08:17:18.714Z,93.00
2017-11-17T08:19:46.252Z,93.00
2017-11-17T08:22:13.796Z,92.90
2017-11-17T08:24:41.405Z,92.90
2017-11-17T08:27:08.962Z,92.90
2017-11-17T08:29:37.343Z,93.00
2017-11-17T08:32:05.692Z,93.00
2017-11-17T08:34:33.254Z,92.90
2017-11-17T08:37:01.101Z,92.90
2017-11-17T08:39:28.653Z,92.90
2017-11-17T08:41:56.238Z,92.90
2017-11-17T08:44:23.804Z,92.80
2017-11-17T08:46:51.410Z,92.80
2017-11-17T08:49:18.954Z,93.20
2017-11-17T08:51:46.498Z,92.80
2017-11-17T08:54:14.752Z,92.80
2017-11-17T08:56:42.298Z,92.80
2017-11-17T08:59:09.843Z,92.80
2017-11-17T09:01:37.465Z,92.90
2017-11-17T09:04:05.887Z,92.80
2017-11-17T09:06:33.506Z,92.80
2017-11-17T09:09:01.835Z,92.80
2017-11-17T09:11:29.390Z,92.80
2017-11-17T09:13:57.090Z,92.80
2017-11-17T09:16:24.630Z,92.80
2017-11-17T09:18:52.171Z,92.90
2017-11-17T09:21:19.766Z,92.80
2017-11-17T09:23:47.348Z,92.80
2017-11-17T09:26:15.654Z,92.60
2017-11-17T09:28:43.394Z,92.60
2017-11-17T09:31:11.003Z,92.60
2017-11-17T09:33:38.545Z,92.60
2017-11-17T09:36:06.134Z,92.60
2017-11-17T09:38:33.862Z,92.60
2017-11-17T09:41:01.407Z,92.50
2017-11-17T09:43:29.070Z,92.50
2017-11-17T09:45:56.622Z,92.50
2017-11-17T09:48:24.978Z,92.40
2017-11-17T09:50:52.525Z,92.40
2017-11-17T09:53:20.122Z,92.30
2017-11-17T09:55:48.494Z,92.10
2017-11-17T09:58:16.808Z,92.10
2017-11-17T10:00:44.364Z,92.10
2017-11-17T10:03:12.895Z,92.00
2017-11-17T10:05:40.433Z,92.00
2017-11-17T10:08:07.983Z,92.00
2017-11-17T10:10:35.566Z,92.00
2017-11-17T10:13:03.171Z,91.90
2017-11-17T10:15:30.717Z,91.90
2017-11-17T10:17:59.171Z,91.80
2017-11-17T10:20:26.718Z,91.80
2017-11-17T10:22:54.324Z,91.70
2017-11-17T10:25:22.631Z,91.40
2017-11-17T10:27:50.199Z,91.40
2017-11-17T10:30:17.791Z,91.20
2017-11-17T10:32:45.340Z,91.10
2017-11-17T10:35:12.981Z,91.00
2017-11-17T10:37:40.929Z,90.80
2017-11-17T10:40:08.508Z,90.60
2017-11-17T10:42:36.093Z,90.50
2017-11-17T10:45:03.637Z,90.30
2017-11-17T10:47:31.239Z,90.10
2017-11-17T10:49:58.769Z,89.80
2017-11-17T10:52:26.307Z,89.30
2017-11-17T10:54:55.246Z,88.80
2017-11-17T10:57:22.783Z,88.30
2017-11-17T10:59:50.331Z,88.10
2017-11-17T11:02:17.915Z,87.30
2017-11-17T11:04:45.481Z,86.80
2017-11-17T11:07:13.082Z,86.60
2017-11-17T11:09:40.617Z,86.00
2017-11-17T11:12:10.292Z,84.40
2017-11-17T11:14:37.843Z,84.30
2017-11-17T11:17:05.438Z,84.10
2017-11-17T11:19:32.983Z,84.60
2017-11-17T11:22:00.582Z,84.70
2017-11-17T11:24:28.119Z,84.50
2017-11-17T11:26:55.664Z,84.50
2017-11-17T11:29:27.015Z,84.60
2017-11-17T11:31:54.617Z,84.60
2017-11-17T11:34:22.287Z,84.20
2017-11-17T11:36:49.835Z,83.80
2017-11-17T11:39:17.443Z,82.90
2017-11-17T11:41:44.987Z,81.20
2017-11-17T11:44:12.528Z,80.20
2017-11-17T11:46:40.372Z,79.20
2017-11-17T11:49:07.907Z,78.90
2017-11-17T11:51:35.447Z,78.50
2017-11-17T11:54:03.107Z,78.60
2017-11-17T11:56:30.700Z,78.40
2017-11-17T11:58:59.003Z,78.50
2017-11-17T12:01:26.547Z,78.50
2017-11-17T12:03:54.230Z,78.40
2017-11-17T12:06:21.832Z,78.80
2017-11-17T12:08:49.379Z,79.20
2017-11-17T12:11:16.911Z,79.40
2017-11-17T12:13:44.493Z,79.40
2017-11-17T12:16:12.039Z,79.10
2017-11-17T12:18:39.593Z,79.30
2017-11-17T12:21:07.347Z,79.50
2017-11-17T12:23:34.880Z,79.20
2017-11-17T12:26:02.419Z,78.70
2017-11-17T12:28:29.999Z,78.30
2017-11-17T12:30:57.578Z,77.30
2017-11-17T12:33:25.930Z,74.10
2017-11-17T12:35:53.471Z,74.10
2017-11-17T12:38:21.072Z,73.50
2017-11-17T12:40:49.428Z,73.60
2017-11-17T12:43:17.107Z,73.60
2017-11-17T12:45:45.418Z,73.20
2017-11-17T12:48:12.976Z,73.20
2017-11-17T12:50:40.583Z,73.20
2017-11-17T12:53:08.112Z,73.00
2017-11-17T12:55:35.849Z,73.00
2017-11-17T12:58:03.436Z,73.00
2017-11-17T13:00:31.041Z,73.30
2017-11-17T13:02:58.601Z,73.20
2017-11-17T13:05:26.147Z,72.70
2017-11-17T13:07:53.749Z,72.40
2017-11-17T13:10:21.317Z,71.60
2017-11-17T13:12:48.947Z,71.70
2017-11-17T13:15:16.488Z,71.00
2017-11-17T13:17:44.029Z,70.60
2017-11-17T13:20:11.600Z,70.60
2017-11-17T13:22:39.316Z,70.00
2017-11-17T13:25:06.859Z,69.30
2017-11-17T13:27:35.239Z,69.60
2017-11-17T13:30:03.544Z,69.20
2017-11-17T13:32:31.074Z,69.20
2017-11-17T13:34:59.422Z,69.80
2017-11-17T13:37:27.136Z,69.70
2017-11-17T13:39:54.714Z,69.70
2017-11-17T13:42:22.269Z,70.00
2017-11-17T13:44:49.895Z,70.00
2017-11-17T13:47:18.204Z,70.00
2017-11-17T13:49:45.746Z,70.00
2017-11-17T13:52:14.142Z,69.50
2017-11-17T13:54:41.683Z,69.50
2017-11-17T13:57:15.163Z,69.80
2017-11-17T13:59:43.505Z,69.60
2017-11-17T14:02:11.044Z,69.60
2017-11-17T14:04:38.643Z,69.50
2017-11-17T14:07:06.602Z,69.20
2017-11-17T14:09:34.135Z,69.00
2017-11-17T14:12:01.723Z,68.80
2017-11-17T14:14:29.284Z,68.40
2017-11-17T14:16:56.942Z,67.60
2017-11-17T14:19:24.489Z,66.90
2017-11-17T14:21:52.127Z,66.90
2017-11-17T14:24:19.681Z,66.70
2017-11-17T14:26:47.259Z,66.80
2017-11-17T14:29:14.798Z,67.00
2017-11-17T14:31:42.382Z,67.10
2017-11-17T14:34:09.928Z,66.70
2017-11-17T14:36:37.501Z,66.80
2017-11-17T14:39:05.036Z,66.90
2017-11-17T14:41:33.424Z,67.40
2017-11-17T14:44:00.978Z,67.40
2017-11-17T14:46:29.274Z,67.60
2017-11-17T14:48:56.863Z,67.60
2017-11-17T14:51:24.410Z,67.80
2017-11-17T14:53:51.951Z,67.60
2017-11-17T14:56:19.530Z,67.70
2017-11-17T14:58:47.311Z,67.70
2017-11-17T15:01:14.915Z,67.60
2017-11-17T15:03:43.216Z,67.60
2017-11-17T15:06:10.754Z,67.60
2017-11-17T15:08:39.395Z,67.90
2017-11-17T15:11:07.104Z,67.90
2017-11-17T15:13:35.405Z,68.20
2017-11-17T15:16:02.958Z,68.10
2017-11-17T15:18:30.540Z,68.30
2017-11-17T15:20:58.128Z,68.60
2017-11-17T15:23:25.662Z,68.90
2017-11-17T15:25:56.927Z,68.70
2017-11-17T15:28:24.463Z,69.00
2017-11-17T15:30:57.426Z,69.40
2017-11-17T15:33:25.002Z,69.70
2017-11-17T15:35:52.577Z,69.90
2017-11-17T15:38:20.115Z,70.30
2017-11-17T15:40:47.662Z,70.50
2017-11-17T15:43:15.239Z,70.90
2017-11-17T15:45:42.809Z,71.10
2017-11-17T15:48:11.873Z,71.30
2017-11-17T15:50:39.482Z,71.60
2017-11-17T15:53:07.014Z,71.70
2017-11-17T15:55:34.552Z,71.80
2017-11-17T15:58:02.184Z,71.90
2017-11-17T16:00:33.743Z,72.10
2017-11-17T16:03:01.291Z,72.50
2017-11-17T16:05:29.010Z,72.80
2017-11-17T16:07:56.553Z,73.00
2017-11-17T16:10:24.899Z,73.20
2017-11-17T16:12:52.433Z,73.20
2017-11-17T16:15:20.023Z,73.20
2017-11-17T16:17:47.568Z,73.40
2017-11-17T16:20:15.111Z,73.50
2017-11-17T16:22:42.755Z,73.60
2017-11-17T16:25:10.354Z,73.70
2017-11-17T16:27:37.896Z,73.70
2017-11-17T16:30:05.439Z,73.70
2017-11-17T16:32:33.019Z,73.80
2017-11-17T16:35:00.616Z,74.10
2017-11-17T16:37:28.962Z,74.30
2017-11-17T16:39:56.495Z,74.20
2017-11-17T16:42:24.183Z,74.40
2017-11-17T16:44:51.746Z,74.50
2017-11-17T16:47:19.282Z,74.70
2017-11-17T16:49:48.063Z,74.80
2017-11-17T16:52:15.599Z,74.90
2017-11-17T16:54:43.945Z,75.40
2017-11-17T16:57:11.490Z,75.40
2017-11-17T16:59:39.133Z,75.60
2017-11-17T17:02:06.785Z,75.80
2017-11-17T17:04:34.374Z,76.00
2017-11-17T17:07:01.916Z,76.40
2017-11-17T17:09:29.498Z,76.50
2017-11-17T17:11:57.047Z,76.70
2017-11-17T17:14:24.626Z,77.00
2017-11-17T17:16:52.160Z,77.20
2017-11-17T17:19:19.701Z,77.30
2017-11-17T17:21:47.820Z,77.50
2017-11-17T17:24:15.356Z,77.70
2017-11-17T17:26:42.893Z,77.80
2017-11-17T17:29:10.470Z,77.90
2017-11-17T17:31:38.021Z,78.00
2017-11-17T17:34:05.615Z,78.20
2017-11-17T17:36:33.226Z,78.30
2017-11-17T17:39:00.848Z,78.50
2017-11-17T17:41:28.374Z,78.70
2017-11-17T17:43:56.007Z,78.70
2017-11-17T17:46:23.543Z,78.90
2017-11-17T17:48:51.891Z,79.20
2017-11-17T17:51:19.437Z,79.20
2017-11-17T17:53:53.146Z,79.30
2017-11-17T17:56:21.014Z,79.40
2017-11-17T17:58:48.723Z,79.50
2017-11-17T18:01:17.030Z,79.70
2017-11-17T18:03:44.637Z,79.70
2017-11-17T18:06:13.018Z,79.90
2017-11-17T18:08:40.581Z,79.90
2017-11-17T18:11:13.343Z,80.00
2017-11-17T18:13:40.889Z,80.20
2017-11-17T18:16:08.428Z,80.30
2017-11-17T18:18:36.125Z,80.40
2017-11-17T18:21:04.955Z,80.60
2017-11-17T18:23:33.258Z,80.90
2017-11-17T18:26:00.817Z,80.80
2017-11-17T18:28:28.544Z,80.90
2017-11-17T18:30:56.092Z,81.00
2017-11-17T18:33:23.618Z,81.10
2017-11-17T18:35:51.497Z,81.20
2017-11-17T18:38:19.041Z,81.20
2017-11-17T18:40:46.582Z,81.90
2017-11-17T18:43:14.214Z,81.30
2017-11-17T18:45:42.516Z,81.50
2017-11-17T18:48:10.156Z,81.40
2017-11-17T18:50:37.714Z,81.40
2017-11-17T18:53:06.063Z,81.60
2017-11-17T18:55:33.599Z,81.50
2017-11-17T18:58:01.343Z,81.70
2017-11-17T19:00:29.674Z,81.80
2017-11-17T19:02:57.305Z,81.80
2017-11-17T19:05:24.822Z,81.90
2017-11-17T19:07:53.170Z,81.90
2017-11-17T19:10:20.703Z,81.90
2017-11-17T19:12:48.593Z,81.90
2017-11-17T19:15:16.126Z,81.90
2017-11-17T19:17:43.666Z,82.20
2017-11-17T19:20:11.254Z,82.30
2017-11-17T19:22:38.867Z,82.40
2017-11-17T19:25:07.170Z,82.60
2017-11-17T19:27:34.762Z,82.60
2017-11-17T19:30:02.294Z,82.60
2017-11-17T19:32:29.949Z,82.70
2017-11-17T19:34:58.283Z,82.80
2017-11-17T19:37:25.817Z,82.80
2017-11-17T19:39:53.399Z,82.90
2017-11-17T19:42:20.982Z,83.10
2017-11-17T19:44:49.277Z,83.30
2017-11-17T19:47:16.850Z,83.30
2017-11-17T19:49:44.382Z,83.20
2017-11-17T19:52:12.914Z,83.40
2017-11-17T19:54:40.452Z,83.40
2017-11-17T19:57:13.275Z,83.40
2017-11-17T19:59:41.602Z,83.50
2017-11-17T20:02:09.211Z,83.40
2017-11-17T20:04:36.752Z,83.50
2017-11-17T20:07:04.652Z,83.60
2017-11-17T20:09:32.189Z,83.70
2017-11-17T20:11:59.888Z,83.70
2017-11-17T20:14:27.425Z,83.70
2017-11-17T20:16:54.963Z,83.70
2017-11-17T20:19:22.550Z,83.70
2017-11-17T20:21:50.147Z,83.70
2017-11-17T20:24:18.452Z,83.70
2017-11-17T20:26:50.027Z,83.70
2017-11-17T20:29:17.570Z,83.70
2017-11-17T20:31:45.183Z,83.80
2017-11-17T20:34:13.495Z,83.90
2017-11-17T20:36:41.042Z,83.80
2017-11-17T20:39:08.667Z,83.90
2017-11-17T20:41:36.202Z,83.90
2017-11-17T20:44:03.738Z,84.10
2017-11-17T20:46:31.316Z,84.10
2017-11-17T20:48:58.856Z,84.00
2017-11-17T20:51:30.376Z,84.20
2017-11-17T20:53:58.679Z,84.40
2017-11-17T20:56:26.220Z,84.30
2017-11-17T20:58:55.090Z,84.60
2017-11-17T21:01:22.777Z,84.60
2017-11-17T21:03:50.481Z,84.60
2017-11-17T21:06:18.204Z,84.60
2017-11-17T21:08:45.783Z,84.70
2017-11-17T21:11:13.338Z,84.70
2017-11-17T21:13:46.183Z,84.70
2017-11-17T21:16:13.781Z,84.60
2017-11-17T21:18:41.327Z,84.50
2017-11-17T21:21:09.631Z,84.60
2017-11-17T21:23:37.385Z,84.50
2017-11-17T21:26:04.951Z,84.50
2017-11-17T21:28:32.490Z,84.50
2017-11-17T21:31:00.930Z,84.50
2017-11-17T21:33:28.457Z,84.50
2017-11-17T21:35:55.996Z,84.60
2017-11-17T21:38:23.607Z,84.70
2017-11-17T21:40:51.150Z,84.40
2017-11-17T21:43:18.718Z,84.60
2017-11-17T21:45:46.314Z,84.60
2017-11-17T21:48:13.850Z,84.60
2017-11-17T21:50:41.445Z,85.40
2017-11-17T21:53:09.751Z,84.60
2017-11-17T21:55:37.330Z,84.60
2017-11-17T21:58:04.872Z,84.60
2017-11-17T22:00:32.824Z,84.70
2017-11-17T22:03:00.372Z,84.70
2017-11-17T22:05:28.730Z,84.70
2017-11-17T22:07:56.266Z,84.70
2017-11-17T22:10:23.900Z,84.80
2017-11-17T22:12:52.205Z,84.90
2017-11-17T22:15:19.778Z,84.80
2017-11-17T22:17:47.310Z,84.80
2017-11-17T22:20:14.889Z,84.80
2017-11-17T22:22:42.430Z,84.90
2017-11-17T22:25:10.006Z,84.80
2017-11-17T22:27:37.544Z,84.80
2017-11-17T22:30:06.473Z,84.90
2017-11-17T22:32:34.011Z,85.10
2017-11-17T22:35:01.630Z,85.10
2017-11-17T22:37:29.174Z,85.00
2017-11-17T22:39:57.478Z,85.00
2017-11-17T22:42:25.059Z,85.00
2017-11-17T22:44:52.634Z,85.20
2017-11-17T22:47:20.174Z,85.30
2017-11-17T22:49:47.775Z,85.20
2017-11-17T22:52:15.315Z,85.20
2017-11-17T22:54:42.842Z,85.30
2017-11-17T22:57:14.543Z,85.40
2017-11-17T22:59:42.100Z,85.30
2017-11-17T23:02:09.633Z,85.30
2017-11-17T23:04:37.208Z,85.50
2017-11-17T23:07:04.771Z,85.60
2017-11-17T23:09:32.343Z,85.80
2017-11-17T23:11:59.873Z,85.90
2017-11-17T23:14:27.567Z,85.90
2017-11-17T23:16:55.107Z,85.80
2017-11-17T23:19:22.638Z,85.80
2017-11-17T23:21:50.214Z,85.80
2017-11-17T23:24:17.795Z,85.70
2017-11-17T23:26:45.336Z,85.80
2017-11-17T23:29:12.919Z,85.90
2017-11-17T23:31:40.499Z,85.80
2017-11-17T23:34:08.232Z,85.80
2017-11-17T23:36:35.923Z,85.80
2017-11-17T23:39:03.458Z,85.80
2017-11-17T23:41:31.001Z,85.70
2017-11-17T23:43:58.714Z,85.60
2017-11-17T23:46:26.251Z,85.70
2017-11-17T23:48:53.786Z,85.70
2017-11-17T23:51:21.440Z,85.60
2017-11-17T23:53:49.022Z,85.80
2017-11-17T23:56:16.702Z,86.00
2017-11-17T23:58:44.663Z,86.00
